createdAt,value
2019-04-11T00:00:55.482Z,29.40
2019-04-11T00:03:21.637Z,29.40
2019-04-11T00:05:47.364Z,29.80
2019-04-11T00:08:14.082Z,29.70
2019-04-11T00:10:39.603Z,29.60
2019-04-11T00:13:17.095Z,29.70
2019-04-11T00:15:32.745Z,29.70
2019-04-11T00:17:58.576Z,29.60
2019-04-11T00:20:24.232Z,29.80
2019-04-11T00:22:51.531Z,29.70
2019-04-11T00:25:17.638Z,29.60
2019-04-11T00:27:43.443Z,29.60
2019-04-11T00:30:10.049Z,29.70
2019-04-11T00:32:35.876Z,29.70
2019-04-11T00:35:02.063Z,29.60
2019-04-11T00:37:29.173Z,29.60
2019-04-11T00:39:54.401Z,29.90
2019-04-11T00:42:20.792Z,29.70
2019-04-11T00:44:48.002Z,29.80
2019-04-11T00:47:13.123Z,29.80
2019-04-11T00:49:39.145Z,29.80
2019-04-11T00:52:06.367Z,29.70
2019-04-11T00:54:31.495Z,29.50
2019-04-11T00:56:58.771Z,29.80
2019-04-11T00:59:24.595Z,29.70
2019-04-11T01:01:50.537Z,29.60
2019-04-11T01:04:16.245Z,29.60
2019-04-11T01:06:42.580Z,29.50
2019-04-11T01:09:10.051Z,29.80
2019-04-11T01:11:34.799Z,29.50
2019-04-11T01:14:01.569Z,29.60
2019-04-11T01:16:28.333Z,29.70
2019-04-11T01:18:54.136Z,29.40
2019-04-11T01:21:20.284Z,29.40
2019-04-11T01:23:47.071Z,29.60
2019-04-11T01:26:12.863Z,29.60
2019-04-11T01:28:38.826Z,29.60
2019-04-11T01:31:05.254Z,29.40
2019-04-11T01:33:31.775Z,29.50
2019-04-11T01:35:58.135Z,29.60
2019-04-11T01:38:25.228Z,29.60
2019-04-11T01:40:50.491Z,29.60
2019-04-11T01:43:16.731Z,29.40
2019-04-11T01:45:43.346Z,29.50
2019-04-11T01:48:09.129Z,29.60
2019-04-11T01:50:35.208Z,29.30
2019-04-11T01:53:02.595Z,29.50
2019-04-11T01:55:28.317Z,29.50
2019-04-11T01:57:54.464Z,29.40
2019-04-11T02:00:20.776Z,29.50
2019-04-11T02:02:46.849Z,29.60
2019-04-11T02:05:12.993Z,29.70
2019-04-11T02:07:39.152Z,29.70
2019-04-11T02:10:05.429Z,29.60
2019-04-11T02:12:31.499Z,29.70
2019-04-11T02:14:57.737Z,29.70
2019-04-11T02:17:24.390Z,29.80
2019-04-11T02:19:50.292Z,29.70
2019-04-11T02:22:16.249Z,29.70
2019-04-11T02:24:42.401Z,29.70
2019-04-11T02:27:10.525Z,29.50
2019-04-11T02:29:35.553Z,29.50
2019-04-11T02:32:05.137Z,29.60
2019-04-11T02:34:28.230Z,29.60
2019-04-11T02:36:56.465Z,30.00
2019-04-11T02:39:22.904Z,29.50
2019-04-11T02:41:48.034Z,29.60
2019-04-11T02:44:30.641Z,29.70
2019-04-11T02:46:44.919Z,29.60
2019-04-11T02:49:07.967Z,29.80
2019-04-11T02:51:34.373Z,29.40
2019-04-11T02:53:59.062Z,29.60
2019-04-11T02:56:25.770Z,29.60
2019-04-11T02:58:52.277Z,29.40
2019-04-11T03:01:17.906Z,29.60
2019-04-11T03:03:45.510Z,29.60
2019-04-11T03:06:11.161Z,29.60
2019-04-11T03:08:38.653Z,29.50
2019-04-11T03:11:02.962Z,29.30
2019-04-11T03:13:29.526Z,29.60
2019-04-11T03:16:08.165Z,29.40
2019-04-11T03:18:40.760Z,29.50
2019-04-11T03:20:55.377Z,29.50
2019-04-11T03:23:16.551Z,29.50
2019-04-11T03:25:40.562Z,29.50
2019-04-11T03:28:12.121Z,29.60
2019-04-11T03:30:49.438Z,29.60
2019-04-11T03:33:54.454Z,29.50
2019-04-11T03:38:17.384Z,29.60
2019-04-11T03:40:36.885Z,29.60
2019-04-11T03:42:59.418Z,29.50
2019-04-11T03:45:32.888Z,29.70
2019-04-11T03:47:51.834Z,29.60
2019-04-11T03:50:08.325Z,29.50
2019-04-11T03:52:30.533Z,29.70
2019-04-11T03:54:56.232Z,29.60
2019-04-11T03:57:23.512Z,29.50
2019-04-11T03:59:48.469Z,29.60
2019-04-11T04:02:15.325Z,29.60
2019-04-11T04:04:41.627Z,29.50
2019-04-11T04:07:08.919Z,29.50
2019-04-11T04:09:35.155Z,29.50
2019-04-11T04:12:00.289Z,29.60
2019-04-11T04:14:26.491Z,29.60
2019-04-11T04:16:54.400Z,29.60
2019-04-11T04:19:18.976Z,29.60
2019-04-11T04:21:44.682Z,29.70
2019-04-11T04:24:11.076Z,29.30
2019-04-11T04:26:37.051Z,29.60
2019-04-11T04:29:04.433Z,29.60
2019-04-11T04:31:30.719Z,29.60
2019-04-11T04:33:57.720Z,29.70
2019-04-11T04:36:24.590Z,30.00
2019-04-11T04:38:49.346Z,29.60
2019-04-11T04:41:26.833Z,29.50
2019-04-11T04:43:41.980Z,29.60
2019-04-11T04:46:23.770Z,29.60
2019-04-11T04:48:33.879Z,29.50
2019-04-11T04:51:04.014Z,29.40
2019-04-11T04:53:28.225Z,29.40
2019-04-11T04:55:54.360Z,29.40
2019-04-11T04:58:20.791Z,29.40
2019-04-11T05:00:45.644Z,29.40
2019-04-11T05:03:11.483Z,29.20
2019-04-11T05:05:38.284Z,29.60
2019-04-11T05:08:03.846Z,29.30
2019-04-11T05:10:30.675Z,29.50
2019-04-11T05:12:57.006Z,29.40
2019-04-11T05:15:24.239Z,29.50
2019-04-11T05:17:49.165Z,29.40
2019-04-11T05:20:16.196Z,29.50
2019-04-11T05:22:41.595Z,29.30
2019-04-11T05:25:08.480Z,29.50
2019-04-11T05:27:33.763Z,29.20
2019-04-11T05:30:00.785Z,29.50
2019-04-11T05:32:27.331Z,29.40
2019-04-11T05:34:53.082Z,29.40
2019-04-11T05:37:18.659Z,29.10
2019-04-11T05:39:44.978Z,29.40
2019-04-11T05:42:11.253Z,29.10
2019-04-11T05:44:38.199Z,29.10
2019-04-11T05:47:05.626Z,29.30
2019-04-11T05:49:36.169Z,29.20
2019-04-11T05:51:58.585Z,29.20
2019-04-11T05:54:23.832Z,29.10
2019-04-11T05:56:53.888Z,29.40
2019-04-11T05:59:16.795Z,29.10
2019-04-11T06:01:42.281Z,29.30
2019-04-11T06:04:07.879Z,29.30
2019-04-11T06:06:37.783Z,29.20
2019-04-11T06:09:00.754Z,29.10
2019-04-11T06:11:26.422Z,29.30
2019-04-11T06:13:53.055Z,29.90
2019-04-11T06:16:18.801Z,29.30
2019-04-11T06:18:45.853Z,29.00
2019-04-11T06:21:11.672Z,29.40
2019-04-11T06:23:37.227Z,29.10
2019-04-11T06:26:03.371Z,29.30
2019-04-11T06:28:30.639Z,29.00
2019-04-11T06:30:56.863Z,29.10
2019-04-11T06:33:22.689Z,29.30
2019-04-11T06:35:48.318Z,29.20
2019-04-11T06:38:14.361Z,29.10
2019-04-11T06:40:40.508Z,29.10
2019-04-11T06:43:07.574Z,28.90
2019-04-11T06:45:32.866Z,29.10
2019-04-11T06:47:59.067Z,29.10
2019-04-11T06:50:25.218Z,28.90
2019-04-11T06:52:51.414Z,28.70
2019-04-11T06:55:18.261Z,29.00
2019-04-11T06:57:43.786Z,29.10
2019-04-11T07:00:09.951Z,28.90
2019-04-11T07:02:36.915Z,28.90
2019-04-11T07:05:02.591Z,29.10
2019-04-11T07:07:30.639Z,28.90
2019-04-11T07:09:55.569Z,28.90
2019-04-11T07:12:22.168Z,29.10
2019-04-11T07:14:47.846Z,29.00
2019-04-11T07:17:15.350Z,29.00
2019-04-11T07:19:40.210Z,29.10
2019-04-11T07:22:06.847Z,29.00
2019-04-11T07:24:32.578Z,29.00
2019-04-11T07:26:58.876Z,29.10
2019-04-11T07:29:25.798Z,29.10
2019-04-11T07:31:51.117Z,29.00
2019-04-11T07:34:17.283Z,28.90
2019-04-11T07:36:44.043Z,29.20
2019-04-11T07:39:09.945Z,28.90
2019-04-11T07:41:35.982Z,29.10
2019-04-11T07:44:02.053Z,29.20
2019-04-11T07:46:28.961Z,29.20
2019-04-11T07:48:54.808Z,29.20
2019-04-11T07:51:21.353Z,29.30
2019-04-11T07:53:48.102Z,29.30
2019-04-11T07:56:13.713Z,29.10
2019-04-11T07:58:39.907Z,29.70
2019-04-11T08:01:06.202Z,29.30
2019-04-11T08:03:32.369Z,29.20
2019-04-11T08:05:58.770Z,29.30
2019-04-11T08:08:25.718Z,29.30
2019-04-11T08:10:50.913Z,29.30
2019-04-11T08:13:17.064Z,29.20
2019-04-11T08:15:43.936Z,29.20
2019-04-11T08:18:10.412Z,29.30
2019-04-11T08:20:35.625Z,29.40
2019-04-11T08:23:01.790Z,29.50
2019-04-11T08:25:27.942Z,29.30
2019-04-11T08:28:00.039Z,29.30
2019-04-11T08:30:20.319Z,29.30
2019-04-11T08:32:46.511Z,29.40
2019-04-11T08:35:12.662Z,29.40
2019-04-11T08:37:39.921Z,29.50
2019-04-11T08:40:05.885Z,29.50
2019-04-11T08:42:31.695Z,29.60
2019-04-11T08:44:58.803Z,29.60
2019-04-11T08:47:24.500Z,29.50
2019-04-11T08:49:50.179Z,29.70
2019-04-11T08:52:16.023Z,29.40
2019-04-11T08:54:42.170Z,29.70
2019-04-11T08:57:10.055Z,29.70
2019-04-11T08:59:35.837Z,29.60
2019-04-11T09:02:02.504Z,29.40
2019-04-11T09:04:27.417Z,29.50
2019-04-11T09:06:54.706Z,29.40
2019-04-11T09:09:20.885Z,29.50
2019-04-11T09:11:46.944Z,29.70
2019-04-11T09:14:12.178Z,30.00
2019-04-11T09:16:39.554Z,29.70
2019-04-11T09:19:04.525Z,29.70
2019-04-11T09:21:31.988Z,29.60
2019-04-11T09:23:57.736Z,29.70
2019-04-11T09:26:23.605Z,29.60
2019-04-11T09:28:49.533Z,29.70
2019-04-11T09:31:15.503Z,29.60
2019-04-11T09:33:41.673Z,29.80
2019-04-11T09:36:07.970Z,29.80
2019-04-11T09:38:34.789Z,29.60
2019-04-11T09:41:00.496Z,29.70
2019-04-11T09:43:26.422Z,29.90
2019-04-11T09:45:52.770Z,29.90
2019-04-11T09:48:19.869Z,29.90
2019-04-11T09:50:45.094Z,29.90
2019-04-11T09:53:12.114Z,29.70
2019-04-11T09:55:37.511Z,29.90
2019-04-11T09:58:03.658Z,29.80
2019-04-11T10:00:30.572Z,29.90
2019-04-11T10:02:56.895Z,29.90
2019-04-11T10:05:24.313Z,29.70
2019-04-11T10:07:50.311Z,29.90
2019-04-11T10:10:15.445Z,29.80
2019-04-11T10:12:42.557Z,29.70
2019-04-11T10:15:09.191Z,29.90
2019-04-11T10:17:34.007Z,29.90
2019-04-11T10:20:00.427Z,30.00
2019-04-11T10:22:27.078Z,30.60
2019-04-11T10:24:52.749Z,30.00
2019-04-11T10:27:18.905Z,30.00
2019-04-11T10:29:45.087Z,30.00
2019-04-11T10:32:11.242Z,30.00
2019-04-11T10:34:37.537Z,30.00
2019-04-11T10:37:03.666Z,30.00
2019-04-11T10:39:30.148Z,30.00
2019-04-11T10:41:56.062Z,30.10
2019-04-11T10:44:23.492Z,30.10
2019-04-11T10:46:49.542Z,30.20
2019-04-11T10:49:15.057Z,30.10
2019-04-11T10:51:42.252Z,30.00
2019-04-11T10:54:08.486Z,29.90
2019-04-11T10:56:34.679Z,30.00
2019-04-11T10:58:59.874Z,30.10
2019-04-11T11:01:26.701Z,30.00
2019-04-11T11:03:53.460Z,29.90
2019-04-11T11:06:18.448Z,29.90
2019-04-11T11:08:45.755Z,30.00
2019-04-11T11:11:13.265Z,30.00
2019-04-11T11:13:39.073Z,29.90
2019-04-11T11:16:04.347Z,29.80
2019-04-11T11:18:49.114Z,30.00
2019-04-11T11:20:58.809Z,30.00
2019-04-11T11:23:21.785Z,30.00
2019-04-11T11:25:49.775Z,29.90
2019-04-11T11:28:14.281Z,30.00
2019-04-11T11:30:40.391Z,30.00
2019-04-11T11:33:07.815Z,29.90
2019-04-11T11:35:35.935Z,29.90
2019-04-11T11:37:59.722Z,29.80
2019-04-11T11:40:25.873Z,29.90
2019-04-11T11:42:52.554Z,29.80
2019-04-11T11:45:17.528Z,29.80
2019-04-11T11:47:44.805Z,29.90
2019-04-11T11:50:15.523Z,29.90
2019-04-11T11:52:36.430Z,30.00
2019-04-11T11:55:02.296Z,29.80
2019-04-11T11:57:28.857Z,29.70
2019-04-11T11:59:54.640Z,29.70
2019-04-11T12:02:21.501Z,29.80
2019-04-11T12:04:47.070Z,29.80
2019-04-11T12:07:13.255Z,29.70
2019-04-11T12:09:39.433Z,29.70
2019-04-11T12:12:06.472Z,29.90
2019-04-11T12:14:33.065Z,29.80
2019-04-11T12:17:03.287Z,29.80
2019-04-11T12:19:25.105Z,29.80
2019-04-11T12:21:51.672Z,29.70
2019-04-11T12:24:17.578Z,29.80
2019-04-11T12:26:45.583Z,29.60
2019-04-11T12:29:10.248Z,29.70
2019-04-11T12:31:37.142Z,29.80
2019-04-11T12:34:02.331Z,29.70
2019-04-11T12:36:28.531Z,29.60
2019-04-11T12:38:55.409Z,29.90
2019-04-11T12:41:21.645Z,29.60
2019-04-11T12:43:47.800Z,29.60
2019-04-11T12:46:13.954Z,29.60
2019-04-11T12:48:40.133Z,29.70
2019-04-11T12:51:06.289Z,29.60
2019-04-11T12:53:32.446Z,29.70
2019-04-11T12:55:58.592Z,29.60
2019-04-11T12:58:24.759Z,29.60
2019-04-11T13:00:50.913Z,29.60
2019-04-11T13:03:17.103Z,29.40
2019-04-11T13:05:44.371Z,29.60
2019-04-11T13:08:09.470Z,29.60
2019-04-11T13:10:35.622Z,29.60
2019-04-11T13:13:01.804Z,29.50
2019-04-11T13:15:28.001Z,29.40
2019-04-11T13:17:54.158Z,29.60
2019-04-11T13:20:20.303Z,30.00
2019-04-11T13:22:46.461Z,29.50
2019-04-11T13:25:12.620Z,29.50
2019-04-11T13:27:38.765Z,29.50
2019-04-11T13:30:04.959Z,29.50
2019-04-11T13:32:31.112Z,29.30
2019-04-11T13:34:57.294Z,29.40
2019-04-11T13:37:23.447Z,29.40
2019-04-11T13:39:49.614Z,29.30
2019-04-11T13:42:15.798Z,29.40
2019-04-11T13:44:41.953Z,29.40
2019-04-11T13:47:08.126Z,29.40
2019-04-11T13:49:34.293Z,29.40
2019-04-11T13:52:00.457Z,29.50
2019-04-11T13:54:26.622Z,29.40
2019-04-11T13:56:52.782Z,29.50
2019-04-11T13:59:18.949Z,29.50
2019-04-11T14:01:45.105Z,29.30
2019-04-11T14:04:11.262Z,29.30
2019-04-11T14:06:37.406Z,29.40
2019-04-11T14:09:03.560Z,29.50
2019-04-11T14:11:31.577Z,29.30
2019-04-11T14:13:55.897Z,29.60
2019-04-11T14:16:22.066Z,29.50
2019-04-11T14:18:48.221Z,29.50
2019-04-11T14:21:14.978Z,29.30
2019-04-11T14:23:41.887Z,29.20
2019-04-11T14:26:06.775Z,29.30
2019-04-11T14:28:32.929Z,29.40
2019-04-11T14:30:59.084Z,29.90
2019-04-11T14:33:27.197Z,29.50
2019-04-11T14:35:51.429Z,29.50
2019-04-11T14:38:17.593Z,29.50
2019-04-11T14:40:43.773Z,29.60
2019-04-11T14:43:09.941Z,29.50
2019-04-11T14:45:36.632Z,29.60
2019-04-11T14:48:02.324Z,29.50
2019-04-11T14:50:40.257Z,29.40
2019-04-11T14:52:54.672Z,29.50
2019-04-11T14:55:20.824Z,29.30
2019-04-11T14:57:47.086Z,29.50
2019-04-11T15:00:13.191Z,29.40
2019-04-11T15:02:39.339Z,29.40
2019-04-11T15:05:06.278Z,29.20
2019-04-11T15:07:31.695Z,29.40
2019-04-11T15:09:58.615Z,29.30
2019-04-11T15:12:24.782Z,29.30
2019-04-11T15:14:51.944Z,29.40
2019-04-11T15:17:17.153Z,29.50
2019-04-11T15:19:43.309Z,29.40
2019-04-11T15:22:09.489Z,29.60
2019-04-11T15:24:37.500Z,29.40
2019-04-11T15:27:02.613Z,29.20
2019-04-11T15:29:28.760Z,29.20
2019-04-11T15:31:54.913Z,29.40
2019-04-11T15:34:21.062Z,29.50
2019-04-11T15:36:47.216Z,29.40
2019-04-11T15:39:14.157Z,29.30
2019-04-11T15:41:40.311Z,29.30
2019-04-11T15:44:06.525Z,29.50
2019-04-11T15:46:32.666Z,29.20
2019-04-11T15:48:58.822Z,29.30
2019-04-11T15:51:24.961Z,29.50
2019-04-11T15:53:51.142Z,29.20
2019-04-11T15:56:17.313Z,29.20
2019-04-11T15:58:43.774Z,29.40
2019-04-11T16:01:10.117Z,29.30
2019-04-11T16:03:36.276Z,29.40
2019-04-11T16:06:02.857Z,29.20
2019-04-11T16:08:28.616Z,29.40
2019-04-11T16:10:54.774Z,29.20
2019-04-11T16:13:20.920Z,29.10
2019-04-11T16:15:47.071Z,29.20
2019-04-11T16:18:15.817Z,29.10
2019-04-11T16:20:39.423Z,29.10
2019-04-11T16:23:05.584Z,29.10
2019-04-11T16:25:31.747Z,29.00
2019-04-11T16:27:58.684Z,29.10
2019-04-11T16:30:24.860Z,29.10
2019-04-11T16:32:51.020Z,29.00
2019-04-11T16:35:17.195Z,28.90
2019-04-11T16:37:43.350Z,29.00
2019-04-11T16:40:09.516Z,29.20
2019-04-11T16:42:36.439Z,29.00
2019-04-11T16:45:02.621Z,29.00
2019-04-11T16:47:28.821Z,28.90
2019-04-11T16:49:57.038Z,29.70
2019-04-11T16:52:21.189Z,29.00
2019-04-11T16:54:47.388Z,28.90
2019-04-11T16:57:14.239Z,29.00
2019-04-11T16:59:39.737Z,29.00
2019-04-11T17:02:06.653Z,29.00
2019-04-11T17:04:32.811Z,29.00
2019-04-11T17:06:58.967Z,28.90
2019-04-11T17:09:26.786Z,29.10
2019-04-11T17:11:51.311Z,28.90
2019-04-11T17:14:27.589Z,29.00
2019-04-11T17:16:44.432Z,29.10
2019-04-11T17:19:11.792Z,29.10
2019-04-11T17:21:43.042Z,29.20
2019-04-11T17:24:03.002Z,28.80
2019-04-11T17:26:29.177Z,29.00
2019-04-11T17:28:55.331Z,29.10
2019-04-11T17:31:25.724Z,28.90
2019-04-11T17:33:47.702Z,28.60
2019-04-11T17:36:13.868Z,28.70
2019-04-11T17:38:40.017Z,28.60
2019-04-11T17:41:06.174Z,28.90
2019-04-11T17:43:32.320Z,28.80
2019-04-11T17:45:58.477Z,28.80
2019-04-11T17:48:24.692Z,28.90
2019-04-11T17:50:51.611Z,28.80
2019-04-11T17:53:17.760Z,28.80
2019-04-11T17:55:43.921Z,28.70
2019-04-11T17:58:10.077Z,28.90
2019-04-11T18:00:36.237Z,28.80
2019-04-11T18:03:03.154Z,28.60
2019-04-11T18:05:29.316Z,28.50
2019-04-11T18:07:55.505Z,28.60
2019-04-11T18:10:25.521Z,28.80
2019-04-11T18:12:47.997Z,28.80
2019-04-11T18:15:14.168Z,28.50
2019-04-11T18:17:40.328Z,28.90
2019-04-11T18:20:06.910Z,28.70
2019-04-11T18:22:32.693Z,28.60
2019-04-11T18:24:59.620Z,28.80
2019-04-11T18:27:25.773Z,28.80
2019-04-11T18:29:53.005Z,28.80
2019-04-11T18:32:18.151Z,28.40
2019-04-11T18:34:44.296Z,28.80
2019-04-11T18:37:10.486Z,28.50
2019-04-11T18:39:36.674Z,29.40
2019-04-11T18:42:02.990Z,28.80
2019-04-11T18:44:29.152Z,28.40
2019-04-11T18:46:56.068Z,28.60
2019-04-11T18:49:22.343Z,28.60
2019-04-11T18:51:48.430Z,28.60
2019-04-11T18:54:14.582Z,28.70
2019-04-11T18:56:40.749Z,28.60
2019-04-11T18:59:06.896Z,28.70
2019-04-11T19:01:33.067Z,28.40
2019-04-11T19:03:59.231Z,28.80
2019-04-11T19:06:27.943Z,28.70
2019-04-11T19:08:51.592Z,28.60
2019-04-11T19:11:17.762Z,28.60
2019-04-11T19:13:46.791Z,28.60
2019-04-11T19:16:10.133Z,28.70
2019-04-11T19:18:36.295Z,28.70
2019-04-11T19:21:02.449Z,28.70
2019-04-11T19:23:28.616Z,28.20
2019-04-11T19:25:54.781Z,28.40
2019-04-11T19:28:24.866Z,28.30
2019-04-11T19:30:47.152Z,28.40
2019-04-11T19:33:13.327Z,28.30
2019-04-11T19:35:41.585Z,28.50
2019-04-11T19:38:06.471Z,28.60
2019-04-11T19:40:32.624Z,28.60
2019-04-11T19:42:58.773Z,28.60
2019-04-11T19:45:24.941Z,28.40
2019-04-11T19:47:52.278Z,28.30
2019-04-11T19:50:17.354Z,28.30
2019-04-11T19:52:45.872Z,28.30
2019-04-11T19:55:10.466Z,28.50
2019-04-11T19:57:36.617Z,28.50
2019-04-11T20:00:02.769Z,28.40
2019-04-11T20:02:28.949Z,28.30
2019-04-11T20:04:57.428Z,28.20
2019-04-11T20:07:21.292Z,28.30
2019-04-11T20:09:47.464Z,28.30
2019-04-11T20:12:13.621Z,28.20
2019-04-11T20:14:39.789Z,28.40
2019-04-11T20:17:09.125Z,28.40
2019-04-11T20:19:32.944Z,28.40
2019-04-11T20:21:59.096Z,27.90
2019-04-11T20:24:27.028Z,28.80
2019-04-11T20:26:53.190Z,28.30
2019-04-11T20:29:21.360Z,28.40
2019-04-11T20:31:45.555Z,28.20
2019-04-11T20:34:11.721Z,28.20
2019-04-11T20:36:41.068Z,28.20
2019-04-11T20:39:04.100Z,28.20
2019-04-11T20:41:30.253Z,28.10
2019-04-11T20:43:57.216Z,28.10
2019-04-11T20:46:22.610Z,28.30
2019-04-11T20:48:49.528Z,27.90
2019-04-11T20:51:17.557Z,27.80
2019-04-11T20:53:41.875Z,27.90
2019-04-11T20:56:09.924Z,27.90
2019-04-11T20:58:34.245Z,28.10
2019-04-11T21:01:00.411Z,27.90
2019-04-11T21:03:32.173Z,27.90
2019-04-11T21:05:59.017Z,27.70
2019-04-11T21:08:24.534Z,28.10
2019-04-11T21:10:51.705Z,28.10
2019-04-11T21:13:17.861Z,27.80
2019-04-11T21:15:44.012Z,28.00
2019-04-11T21:18:10.170Z,28.00
2019-04-11T21:20:36.324Z,27.80
2019-04-11T21:23:02.472Z,27.90
2019-04-11T21:25:29.123Z,27.90
2019-04-11T21:27:56.690Z,27.90
2019-04-11T21:30:21.043Z,28.00
2019-04-11T21:32:47.201Z,27.70
2019-04-11T21:35:13.377Z,28.00
2019-04-11T21:37:39.529Z,28.00
2019-04-11T21:40:05.716Z,28.00
2019-04-11T21:42:35.839Z,27.90
2019-04-11T21:44:58.083Z,28.00
2019-04-11T21:47:24.242Z,28.00
2019-04-11T21:49:50.427Z,27.80
2019-04-11T21:52:16.583Z,27.90
2019-04-11T21:54:45.133Z,28.00
2019-04-11T21:57:08.948Z,27.90
2019-04-11T21:59:35.099Z,27.90
2019-04-11T22:02:01.248Z,27.90
2019-04-11T22:04:30.952Z,27.90
2019-04-11T22:06:53.611Z,27.90
2019-04-11T22:09:19.757Z,27.80
2019-04-11T22:11:45.906Z,27.90
2019-04-11T22:14:12.064Z,28.00
2019-04-11T22:16:38.224Z,27.80
2019-04-11T22:19:04.389Z,27.50
2019-04-11T22:21:30.546Z,27.90
2019-04-11T22:23:56.693Z,27.60
2019-04-11T22:26:22.840Z,27.80
2019-04-11T22:28:48.997Z,27.90
2019-04-11T22:31:15.144Z,27.80
2019-04-11T22:33:41.303Z,27.90
2019-04-11T22:36:07.453Z,27.90
2019-04-11T22:38:33.604Z,27.80
2019-04-11T22:41:01.914Z,27.80
2019-04-11T22:43:25.963Z,27.50
2019-04-11T22:45:52.140Z,27.70
2019-04-11T22:48:18.286Z,27.80
2019-04-11T22:50:44.462Z,27.70
2019-04-11T22:53:12.897Z,27.70
2019-04-11T22:55:38.943Z,27.90
2019-04-11T22:58:03.024Z,27.50
2019-04-11T23:00:29.200Z,27.80
2019-04-11T23:02:55.343Z,27.90
2019-04-11T23:05:21.522Z,27.90
2019-04-11T23:07:48.434Z,27.60
2019-04-11T23:10:13.882Z,27.70
2019-04-11T23:12:40.042Z,27.80
2019-04-11T23:15:06.192Z,27.60
2019-04-11T23:17:32.362Z,27.90
2019-04-11T23:19:58.503Z,27.60
2019-04-11T23:22:24.652Z,27.80
2019-04-11T23:24:50.822Z,27.80
2019-04-11T23:27:16.984Z,28.10
2019-04-11T23:29:44.735Z,27.80
2019-04-11T23:32:09.329Z,27.80
2019-04-11T23:34:35.479Z,27.50
2019-04-11T23:37:01.637Z,28.00
2019-04-11T23:39:27.796Z,27.60
2019-04-11T23:41:53.943Z,27.60
2019-04-11T23:44:20.955Z,27.70
2019-04-11T23:46:47.046Z,27.70
2019-04-11T23:49:13.205Z,27.60
2019-04-11T23:51:39.367Z,27.70
2019-04-11T23:54:05.531Z,27.50
2019-04-11T23:56:31.684Z,27.50
2019-04-11T23:59:01.661Z,27.60
